sensor_id;sensor_type;location;lat;lon;timestamp;P1;durP1;ratioP1;P2;durP2;ratioP2
30036;SDS011;36325;51.512;-0.382;2022-08-25T00:01:35;5.50;;;2.60;;
30036;SDS011;36325;51.512;-0.382;2022-08-25T00:04:05;3.55;;;2.10;;
30036;SDS011;36325;51.512;-0.382;2022-08-25T00:06:37;4.95;;;2.17;;
30036;SDS011;36325;51.512;-0.382;2022-08-25T00:09:05;4.88;;;2.05;;
30036;SDS011;36325;51.512;-0.382;2022-08-25T00:11:34;3.50;;;1.92;;
30036;SDS011;36325;51.512;-0.382;2022-08-25T00:14:06;3.55;;;1.73;;
30036;SDS011;36325;51.512;-0.382;2022-08-25T00:16:36;3.65;;;1.92;;
30036;SDS011;36325;51.512;-0.382;2022-08-25T00:19:07;4.15;;;2.03;;
30036;SDS011;36325;51.512;-0.382;2022-08-25T00:21:37;2.92;;;1.90;;
30036;SDS011;36325;51.512;-0.382;2022-08-25T00:24:06;3.92;;;1.77;;
30036;SDS011;36325;51.512;-0.382;2022-08-25T00:26:37;2.10;;;1.70;;
30036;SDS011;36325;51.512;-0.382;2022-08-25T00:29:09;5.82;;;2.30;;
30036;SDS011;36325;51.512;-0.382;2022-08-25T00:31:37;2.92;;;1.92;;
30036;SDS011;36325;51.512;-0.382;2022-08-25T00:34:07;3.97;;;1.92;;
30036;SDS011;36325;51.512;-0.382;2022-08-25T00:36:36;4.47;;;2.05;;
30036;SDS011;36325;51.512;-0.382;2022-08-25T00:39:04;2.80;;;1.98;;
30036;SDS011;36325;51.512;-0.382;2022-08-25T00:41:33;3.17;;;1.98;;
30036;SDS011;36325;51.512;-0.382;2022-08-25T00:44:02;5.68;;;1.98;;
30036;SDS011;36325;51.512;-0.382;2022-08-25T00:46:34;4.70;;;2.00;;
30036;SDS011;36325;51.512;-0.382;2022-08-25T00:49:31;3.78;;;2.17;;
30036;SDS011;36325;51.512;-0.382;2022-08-25T00:51:59;2.90;;;1.70;;
30036;SDS011;36325;51.512;-0.382;2022-08-25T00:54:34;4.45;;;2.05;;
30036;SDS011;36325;51.512;-0.382;2022-08-25T00:57:16;2.50;;;2.00;;
30036;SDS011;36325;51.512;-0.382;2022-08-25T00:59:47;5.30;;;2.58;;
30036;SDS011;36325;51.512;-0.382;2022-08-25T01:02:15;3.30;;;1.73;;
30036;SDS011;36325;51.512;-0.382;2022-08-25T01:04:43;2.83;;;1.92;;
30036;SDS011;36325;51.512;-0.382;2022-08-25T01:07:14;3.15;;;1.58;;
30036;SDS011;36325;51.512;-0.382;2022-08-25T01:09:45;4.70;;;2.08;;
30036;SDS011;36325;51.512;-0.382;2022-08-25T01:12:15;5.53;;;2.35;;
30036;SDS011;36325;51.512;-0.382;2022-08-25T01:14:43;3.22;;;1.90;;
30036;SDS011;36325;51.512;-0.382;2022-08-25T01:17:12;3.60;;;2.20;;
30036;SDS011;36325;51.512;-0.382;2022-08-25T01:19:39;9.02;;;2.28;;
30036;SDS011;36325;51.512;-0.382;2022-08-25T01:22:07;3.03;;;1.70;;
30036;SDS011;36325;51.512;-0.382;2022-08-25T01:24:44;5.97;;;1.92;;
30036;SDS011;36325;51.512;-0.382;2022-08-25T01:27:19;3.53;;;2.55;;
30036;SDS011;36325;51.512;-0.382;2022-08-25T01:29:46;4.97;;;2.30;;
30036;SDS011;36325;51.512;-0.382;2022-08-25T01:32:14;4.53;;;1.95;;
30036;SDS011;36325;51.512;-0.382;2022-08-25T01:34:42;5.53;;;2.05;;
30036;SDS011;36325;51.512;-0.382;2022-08-25T01:37:12;3.72;;;2.00;;
30036;SDS011;36325;51.512;-0.382;2022-08-25T01:39:41;8.77;;;2.25;;
30036;SDS011;36325;51.512;-0.382;2022-08-25T01:42:16;7.68;;;2.33;;
30036;SDS011;36325;51.512;-0.382;2022-08-25T01:44:49;2.97;;;2.10;;
30036;SDS011;36325;51.512;-0.382;2022-08-25T01:47:16;4.82;;;2.00;;
30036;SDS011;36325;51.512;-0.382;2022-08-25T01:49:44;4.43;;;1.65;;
30036;SDS011;36325;51.512;-0.382;2022-08-25T01:52:14;5.30;;;2.15;;
30036;SDS011;36325;51.512;-0.382;2022-08-25T01:54:49;19.02;;;2.70;;
30036;SDS011;36325;51.512;-0.382;2022-08-25T01:57:17;7.35;;;1.88;;
30036;SDS011;36325;51.512;-0.382;2022-08-25T01:59:44;3.47;;;2.00;;
30036;SDS011;36325;51.512;-0.382;2022-08-25T02:02:13;3.97;;;1.70;;
30036;SDS011;36325;51.512;-0.382;2022-08-25T02:04:40;2.60;;;1.80;;
30036;SDS011;36325;51.512;-0.382;2022-08-25T02:07:09;3.80;;;2.20;;
30036;SDS011;36325;51.512;-0.382;2022-08-25T02:09:37;3.97;;;1.95;;
30036;SDS011;36325;51.512;-0.382;2022-08-25T02:12:06;7.10;;;2.85;;
30036;SDS011;36325;51.512;-0.382;2022-08-25T02:14:35;9.43;;;3.55;;
30036;SDS011;36325;51.512;-0.382;2022-08-25T02:17:03;15.13;;;4.40;;
30036;SDS011;36325;51.512;-0.382;2022-08-25T02:19:31;11.90;;;4.63;;
30036;SDS011;36325;51.512;-0.382;2022-08-25T02:21:59;12.05;;;3.92;;
30036;SDS011;36325;51.512;-0.382;2022-08-25T02:24:27;17.00;;;4.93;;
30036;SDS011;36325;51.512;-0.382;2022-08-25T02:26:54;11.13;;;4.53;;
30036;SDS011;36325;51.512;-0.382;2022-08-25T02:29:22;10.18;;;4.18;;
30036;SDS011;36325;51.512;-0.382;2022-08-25T02:31:49;9.32;;;5.30;;
30036;SDS011;36325;51.512;-0.382;2022-08-25T02:34:16;11.57;;;4.75;;
30036;SDS011;36325;51.512;-0.382;2022-08-25T02:36:43;21.48;;;5.50;;
30036;SDS011;36325;51.512;-0.382;2022-08-25T02:39:11;16.50;;;5.60;;
30036;SDS011;36325;51.512;-0.382;2022-08-25T02:41:39;13.82;;;5.80;;
30036;SDS011;36325;51.512;-0.382;2022-08-25T02:44:07;16.05;;;5.45;;
30036;SDS011;36325;51.512;-0.382;2022-08-25T02:46:35;16.10;;;6.18;;
30036;SDS011;36325;51.512;-0.382;2022-08-25T02:49:04;13.50;;;5.50;;
30036;SDS011;36325;51.512;-0.382;2022-08-25T02:51:32;10.02;;;5.18;;
30036;SDS011;36325;51.512;-0.382;2022-08-25T02:54:02;8.50;;;4.95;;
30036;SDS011;36325;51.512;-0.382;2022-08-25T02:56:30;10.48;;;5.15;;
30036;SDS011;36325;51.512;-0.382;2022-08-25T02:58:58;12.82;;;5.80;;
30036;SDS011;36325;51.512;-0.382;2022-08-25T03:01:26;8.43;;;5.50;;
30036;SDS011;36325;51.512;-0.382;2022-08-25T03:03:54;12.73;;;5.13;;
30036;SDS011;36325;51.512;-0.382;2022-08-25T03:06:22;8.05;;;4.72;;
30036;SDS011;36325;51.512;-0.382;2022-08-25T03:08:50;8.40;;;4.90;;
30036;SDS011;36325;51.512;-0.382;2022-08-25T03:11:19;9.45;;;5.15;;
30036;SDS011;36325;51.512;-0.382;2022-08-25T03:13:47;9.07;;;4.97;;
30036;SDS011;36325;51.512;-0.382;2022-08-25T03:16:17;8.75;;;5.05;;
30036;SDS011;36325;51.512;-0.382;2022-08-25T03:18:45;6.90;;;4.43;;
30036;SDS011;36325;51.512;-0.382;2022-08-25T03:21:14;9.80;;;4.50;;
30036;SDS011;36325;51.512;-0.382;2022-08-25T03:23:42;8.25;;;4.97;;
30036;SDS011;36325;51.512;-0.382;2022-08-25T03:26:10;8.77;;;5.47;;
30036;SDS011;36325;51.512;-0.382;2022-08-25T03:28:55;7.50;;;4.97;;
30036;SDS011;36325;51.512;-0.382;2022-08-25T03:31:23;10.82;;;4.50;;
30036;SDS011;36325;51.512;-0.382;2022-08-25T03:33:54;9.80;;;4.43;;
30036;SDS011;36325;51.512;-0.382;2022-08-25T03:36:21;6.97;;;4.50;;
30036;SDS011;36325;51.512;-0.382;2022-08-25T03:38:48;10.07;;;4.97;;
30036;SDS011;36325;51.512;-0.382;2022-08-25T03:41:18;7.13;;;4.53;;
30036;SDS011;36325;51.512;-0.382;2022-08-25T03:43:50;7.32;;;5.38;;
30036;SDS011;36325;51.512;-0.382;2022-08-25T03:46:19;8.82;;;4.78;;
30036;SDS011;36325;51.512;-0.382;2022-08-25T03:48:48;11.07;;;5.75;;
30036;SDS011;36325;51.512;-0.382;2022-08-25T03:51:23;7.68;;;5.32;;
30036;SDS011;36325;51.512;-0.382;2022-08-25T03:53:54;6.72;;;5.70;;
30036;SDS011;36325;51.512;-0.382;2022-08-25T03:56:22;11.75;;;5.80;;
30036;SDS011;36325;51.512;-0.382;2022-08-25T03:58:49;8.07;;;6.20;;
30036;SDS011;36325;51.512;-0.382;2022-08-25T04:01:17;11.10;;;6.07;;
30036;SDS011;36325;51.512;-0.382;2022-08-25T04:03:44;12.48;;;5.80;;
30036;SDS011;36325;51.512;-0.382;2022-08-25T04:06:12;11.43;;;6.13;;
30036;SDS011;36325;51.512;-0.382;2022-08-25T04:08:41;9.30;;;5.63;;
30036;SDS011;36325;51.512;-0.382;2022-08-25T04:11:18;13.18;;;6.55;;
30036;SDS011;36325;51.512;-0.382;2022-08-25T04:13:48;10.68;;;7.13;;
30036;SDS011;36325;51.512;-0.382;2022-08-25T04:18:46;8.63;;;6.60;;
30036;SDS011;36325;51.512;-0.382;2022-08-25T04:21:15;16.15;;;7.88;;
30036;SDS011;36325;51.512;-0.382;2022-08-25T04:23:43;12.88;;;7.28;;
30036;SDS011;36325;51.512;-0.382;2022-08-25T04:26:15;11.75;;;7.70;;
30036;SDS011;36325;51.512;-0.382;2022-08-25T04:28:55;10.63;;;7.60;;
30036;SDS011;36325;51.512;-0.382;2022-08-25T04:31:24;11.93;;;8.13;;
30036;SDS011;36325;51.512;-0.382;2022-08-25T04:33:52;11.70;;;7.75;;
30036;SDS011;36325;51.512;-0.382;2022-08-25T04:36:20;19.20;;;8.52;;
30036;SDS011;36325;51.512;-0.382;2022-08-25T04:38:47;15.88;;;9.30;;
30036;SDS011;36325;51.512;-0.382;2022-08-25T04:41:16;20.45;;;9.90;;
30036;SDS011;36325;51.512;-0.382;2022-08-25T04:43:45;24.63;;;10.85;;
30036;SDS011;36325;51.512;-0.382;2022-08-25T04:48:42;21.80;;;13.75;;
30036;SDS011;36325;51.512;-0.382;2022-08-25T04:51:11;26.25;;;14.65;;
30036;SDS011;36325;51.512;-0.382;2022-08-25T04:53:40;29.20;;;15.40;;
30036;SDS011;36325;51.512;-0.382;2022-08-25T04:56:09;26.77;;;15.88;;
30036;SDS011;36325;51.512;-0.382;2022-08-25T04:58:39;29.45;;;17.52;;
30036;SDS011;36325;51.512;-0.382;2022-08-25T05:01:08;26.77;;;15.88;;
30036;SDS011;36325;51.512;-0.382;2022-08-25T05:03:41;27.00;;;16.73;;
30036;SDS011;36325;51.512;-0.382;2022-08-25T05:06:09;30.17;;;17.67;;
30036;SDS011;36325;51.512;-0.382;2022-08-25T05:08:41;25.95;;;15.43;;
30036;SDS011;36325;51.512;-0.382;2022-08-25T05:11:11;27.77;;;16.10;;
30036;SDS011;36325;51.512;-0.382;2022-08-25T05:13:40;24.00;;;15.57;;
30036;SDS011;36325;51.512;-0.382;2022-08-25T05:16:07;26.95;;;17.38;;
30036;SDS011;36325;51.512;-0.382;2022-08-25T05:18:35;27.95;;;16.40;;
30036;SDS011;36325;51.512;-0.382;2022-08-25T05:21:03;30.08;;;18.35;;
30036;SDS011;36325;51.512;-0.382;2022-08-25T05:23:33;28.42;;;18.00;;
30036;SDS011;36325;51.512;-0.382;2022-08-25T05:26:02;28.63;;;17.55;;
30036;SDS011;36325;51.512;-0.382;2022-08-25T05:28:31;30.08;;;17.83;;
30036;SDS011;36325;51.512;-0.382;2022-08-25T05:30:59;32.35;;;18.60;;
30036;SDS011;36325;51.512;-0.382;2022-08-25T05:33:27;30.13;;;17.85;;
30036;SDS011;36325;51.512;-0.382;2022-08-25T05:35:56;31.38;;;18.27;;
30036;SDS011;36325;51.512;-0.382;2022-08-25T05:38:23;25.85;;;16.60;;
30036;SDS011;36325;51.512;-0.382;2022-08-25T05:40:57;27.38;;;17.40;;
30036;SDS011;36325;51.512;-0.382;2022-08-25T05:43:29;32.28;;;17.48;;
30036;SDS011;36325;51.512;-0.382;2022-08-25T05:45:57;26.50;;;16.73;;
30036;SDS011;36325;51.512;-0.382;2022-08-25T05:48:25;34.05;;;18.13;;
30036;SDS011;36325;51.512;-0.382;2022-08-25T05:50:53;27.02;;;16.80;;
30036;SDS011;36325;51.512;-0.382;2022-08-25T05:53:23;26.58;;;17.05;;
30036;SDS011;36325;51.512;-0.382;2022-08-25T05:55:52;34.22;;;18.40;;
30036;SDS011;36325;51.512;-0.382;2022-08-25T05:58:20;27.27;;;17.70;;
30036;SDS011;36325;51.512;-0.382;2022-08-25T06:00:48;39.80;;;20.27;;
30036;SDS011;36325;51.512;-0.382;2022-08-25T06:03:17;29.60;;;20.10;;
30036;SDS011;36325;51.512;-0.382;2022-08-25T06:05:44;32.80;;;18.98;;
30036;SDS011;36325;51.512;-0.382;2022-08-25T06:08:12;34.65;;;20.45;;
30036;SDS011;36325;51.512;-0.382;2022-08-25T06:10:39;32.53;;;19.38;;
30036;SDS011;36325;51.512;-0.382;2022-08-25T06:13:07;38.00;;;19.52;;
30036;SDS011;36325;51.512;-0.382;2022-08-25T06:15:34;34.63;;;18.27;;
30036;SDS011;36325;51.512;-0.382;2022-08-25T06:18:02;34.38;;;18.60;;
30036;SDS011;36325;51.512;-0.382;2022-08-25T06:20:29;34.28;;;18.92;;
30036;SDS011;36325;51.512;-0.382;2022-08-25T06:22:57;37.55;;;19.98;;
30036;SDS011;36325;51.512;-0.382;2022-08-25T06:25:26;34.92;;;18.65;;
30036;SDS011;36325;51.512;-0.382;2022-08-25T06:27:54;31.35;;;19.55;;
30036;SDS011;36325;51.512;-0.382;2022-08-25T06:30:22;27.00;;;17.17;;
30036;SDS011;36325;51.512;-0.382;2022-08-25T06:32:54;30.88;;;17.95;;
30036;SDS011;36325;51.512;-0.382;2022-08-25T06:35:21;28.70;;;18.08;;
30036;SDS011;36325;51.512;-0.382;2022-08-25T06:37:49;28.08;;;18.20;;
30036;SDS011;36325;51.512;-0.382;2022-08-25T06:40:16;40.05;;;19.70;;
30036;SDS011;36325;51.512;-0.382;2022-08-25T06:42:46;34.58;;;19.98;;
30036;SDS011;36325;51.512;-0.382;2022-08-25T06:45:15;34.38;;;18.90;;
30036;SDS011;36325;51.512;-0.382;2022-08-25T06:47:43;31.98;;;20.92;;
30036;SDS011;36325;51.512;-0.382;2022-08-25T06:50:10;31.77;;;19.42;;
30036;SDS011;36325;51.512;-0.382;2022-08-25T06:52:38;33.97;;;18.90;;
30036;SDS011;36325;51.512;-0.382;2022-08-25T06:55:05;36.38;;;19.35;;
30036;SDS011;36325;51.512;-0.382;2022-08-25T06:57:32;31.95;;;20.10;;
30036;SDS011;36325;51.512;-0.382;2022-08-25T07:00:04;37.60;;;19.70;;
30036;SDS011;36325;51.512;-0.382;2022-08-25T07:02:34;39.28;;;20.02;;
30036;SDS011;36325;51.512;-0.382;2022-08-25T07:05:01;38.28;;;19.77;;
30036;SDS011;36325;51.512;-0.382;2022-08-25T07:07:28;38.60;;;19.38;;
30036;SDS011;36325;51.512;-0.382;2022-08-25T07:10:08;41.60;;;22.63;;
30036;SDS011;36325;51.512;-0.382;2022-08-25T07:12:36;43.58;;;23.30;;
30036;SDS011;36325;51.512;-0.382;2022-08-25T07:15:03;31.52;;;19.63;;
30036;SDS011;36325;51.512;-0.382;2022-08-25T07:17:47;36.17;;;20.58;;
30036;SDS011;36325;51.512;-0.382;2022-08-25T07:20:16;37.10;;;21.05;;
30036;SDS011;36325;51.512;-0.382;2022-08-25T07:22:44;41.88;;;21.08;;
30036;SDS011;36325;51.512;-0.382;2022-08-25T07:25:13;36.58;;;20.55;;
30036;SDS011;36325;51.512;-0.382;2022-08-25T07:27:41;37.05;;;21.83;;
30036;SDS011;36325;51.512;-0.382;2022-08-25T07:30:08;37.08;;;20.60;;
30036;SDS011;36325;51.512;-0.382;2022-08-25T07:32:36;40.65;;;20.75;;
30036;SDS011;36325;51.512;-0.382;2022-08-25T07:35:08;38.83;;;22.10;;
30036;SDS011;36325;51.512;-0.382;2022-08-25T07:37:45;39.67;;;20.35;;
30036;SDS011;36325;51.512;-0.382;2022-08-25T07:40:25;35.63;;;18.95;;
30036;SDS011;36325;51.512;-0.382;2022-08-25T07:42:58;38.92;;;19.90;;
30036;SDS011;36325;51.512;-0.382;2022-08-25T07:45:27;42.75;;;21.27;;
30036;SDS011;36325;51.512;-0.382;2022-08-25T07:47:57;45.67;;;21.05;;
30036;SDS011;36325;51.512;-0.382;2022-08-25T07:50:27;40.70;;;21.08;;
30036;SDS011;36325;51.512;-0.382;2022-08-25T07:52:55;42.30;;;22.45;;
30036;SDS011;36325;51.512;-0.382;2022-08-25T07:55:23;38.90;;;20.35;;
30036;SDS011;36325;51.512;-0.382;2022-08-25T07:57:52;40.08;;;19.92;;
30036;SDS011;36325;51.512;-0.382;2022-08-25T08:00:21;42.03;;;21.10;;
30036;SDS011;36325;51.512;-0.382;2022-08-25T08:02:49;34.78;;;18.20;;
30036;SDS011;36325;51.512;-0.382;2022-08-25T08:05:16;40.50;;;18.85;;
30036;SDS011;36325;51.512;-0.382;2022-08-25T08:07:43;46.67;;;20.85;;
30036;SDS011;36325;51.512;-0.382;2022-08-25T08:10:11;41.70;;;21.50;;
30036;SDS011;36325;51.512;-0.382;2022-08-25T08:13:00;42.22;;;20.55;;
30036;SDS011;36325;51.512;-0.382;2022-08-25T08:15:28;37.22;;;19.40;;
30036;SDS011;36325;51.512;-0.382;2022-08-25T08:17:56;35.13;;;18.00;;
30036;SDS011;36325;51.512;-0.382;2022-08-25T08:20:24;31.23;;;16.73;;
30036;SDS011;36325;51.512;-0.382;2022-08-25T08:22:52;28.50;;;15.70;;
30036;SDS011;36325;51.512;-0.382;2022-08-25T08:25:20;29.25;;;15.77;;
30036;SDS011;36325;51.512;-0.382;2022-08-25T08:27:51;30.13;;;15.98;;
30036;SDS011;36325;51.512;-0.382;2022-08-25T08:30:20;25.60;;;14.55;;
30036;SDS011;36325;51.512;-0.382;2022-08-25T08:32:49;32.38;;;15.07;;
30036;SDS011;36325;51.512;-0.382;2022-08-25T08:35:34;22.08;;;12.75;;
30036;SDS011;36325;51.512;-0.382;2022-08-25T08:38:02;17.92;;;12.32;;
30036;SDS011;36325;51.512;-0.382;2022-08-25T08:40:36;21.75;;;13.70;;
30036;SDS011;36325;51.512;-0.382;2022-08-25T08:43:33;22.52;;;11.80;;
30036;SDS011;36325;51.512;-0.382;2022-08-25T08:46:02;15.05;;;10.35;;
30036;SDS011;36325;51.512;-0.382;2022-08-25T08:54:06;20.05;;;11.02;;
30036;SDS011;36325;51.512;-0.382;2022-08-25T08:59:12;19.17;;;9.95;;
30036;SDS011;36325;51.512;-0.382;2022-08-25T09:01:46;17.83;;;10.33;;
30036;SDS011;36325;51.512;-0.382;2022-08-25T09:04:37;18.60;;;10.57;;
30036;SDS011;36325;51.512;-0.382;2022-08-25T09:07:18;15.07;;;9.60;;
30036;SDS011;36325;51.512;-0.382;2022-08-25T09:09:55;16.33;;;9.52;;
30036;SDS011;36325;51.512;-0.382;2022-08-25T09:18:47;14.20;;;9.15;;
30036;SDS011;36325;51.512;-0.382;2022-08-25T09:26:48;17.67;;;9.60;;
30036;SDS011;36325;51.512;-0.382;2022-08-25T09:29:22;15.52;;;8.52;;
30036;SDS011;36325;51.512;-0.382;2022-08-25T09:31:52;12.32;;;7.18;;
30036;SDS011;36325;51.512;-0.382;2022-08-25T09:34:27;14.93;;;8.05;;
30036;SDS011;36325;51.512;-0.382;2022-08-25T09:36:58;11.40;;;7.30;;
30036;SDS011;36325;51.512;-0.382;2022-08-25T09:39:26;11.65;;;7.75;;
30036;SDS011;36325;51.512;-0.382;2022-08-25T09:41:54;10.35;;;7.43;;
30036;SDS011;36325;51.512;-0.382;2022-08-25T09:47:14;9.32;;;6.80;;
30036;SDS011;36325;51.512;-0.382;2022-08-25T09:49:46;9.27;;;6.72;;
30036;SDS011;36325;51.512;-0.382;2022-08-25T09:52:31;8.82;;;6.15;;
30036;SDS011;36325;51.512;-0.382;2022-08-25T10:02:59;6.93;;;5.00;;
30036;SDS011;36325;51.512;-0.382;2022-08-25T10:10:59;9.82;;;5.35;;
30036;SDS011;36325;51.512;-0.382;2022-08-25T10:13:49;6.43;;;4.60;;
30036;SDS011;36325;51.512;-0.382;2022-08-25T10:16:34;7.35;;;4.20;;
30036;SDS011;36325;51.512;-0.382;2022-08-25T10:19:04;4.15;;;3.58;;
30036;SDS011;36325;51.512;-0.382;2022-08-25T10:21:33;4.32;;;3.60;;
30036;SDS011;36325;51.512;-0.382;2022-08-25T10:24:01;5.85;;;5.22;;
30036;SDS011;36325;51.512;-0.382;2022-08-25T10:26:35;6.70;;;4.68;;
30036;SDS011;36325;51.512;-0.382;2022-08-25T10:29:35;5.57;;;4.50;;
30036;SDS011;36325;51.512;-0.382;2022-08-25T10:32:25;6.00;;;4.90;;
30036;SDS011;36325;51.512;-0.382;2022-08-25T10:35:23;9.27;;;4.50;;
30036;SDS011;36325;51.512;-0.382;2022-08-25T10:40:33;25.40;;;11.98;;
30036;SDS011;36325;51.512;-0.382;2022-08-25T10:43:17;5.70;;;3.65;;
30036;SDS011;36325;51.512;-0.382;2022-08-25T10:46:12;4.25;;;3.03;;
30036;SDS011;36325;51.512;-0.382;2022-08-25T11:00:00;10.80;;;5.00;;
30036;SDS011;36325;51.512;-0.382;2022-08-25T11:05:34;9.18;;;3.95;;
30036;SDS011;36325;51.512;-0.382;2022-08-25T11:08:39;4.50;;;3.83;;
30036;SDS011;36325;51.512;-0.382;2022-08-25T11:17:18;4.95;;;3.50;;
30036;SDS011;36325;51.512;-0.382;2022-08-25T11:19:46;5.50;;;3.65;;
30036;SDS011;36325;51.512;-0.382;2022-08-25T11:22:22;5.47;;;3.47;;
30036;SDS011;36325;51.512;-0.382;2022-08-25T11:30:37;7.15;;;3.35;;
30036;SDS011;36325;51.512;-0.382;2022-08-25T11:33:05;8.88;;;3.60;;
30036;SDS011;36325;51.512;-0.382;2022-08-25T11:35:46;4.15;;;3.58;;
30036;SDS011;36325;51.512;-0.382;2022-08-25T11:46:26;3.92;;;2.97;;
30036;SDS011;36325;51.512;-0.382;2022-08-25T11:51:54;2.83;;;2.05;;
30036;SDS011;36325;51.512;-0.382;2022-08-25T11:54:29;4.47;;;1.98;;
30036;SDS011;36325;51.512;-0.382;2022-08-25T12:02:31;3.20;;;1.73;;
30036;SDS011;36325;51.512;-0.382;2022-08-25T12:10:57;3.95;;;1.90;;
30036;SDS011;36325;51.512;-0.382;2022-08-25T12:13:38;2.80;;;1.50;;
30036;SDS011;36325;51.512;-0.382;2022-08-25T12:27:02;2.85;;;1.50;;
30036;SDS011;36325;51.512;-0.382;2022-08-25T12:29:39;2.33;;;1.30;;
30036;SDS011;36325;51.512;-0.382;2022-08-25T12:45:46;2.00;;;1.05;;
30036;SDS011;36325;51.512;-0.382;2022-08-25T12:51:02;1.60;;;1.15;;
30036;SDS011;36325;51.512;-0.382;2022-08-25T12:56:07;2.55;;;0.85;;
30036;SDS011;36325;51.512;-0.382;2022-08-25T12:58:49;2.80;;;1.23;;
30036;SDS011;36325;51.512;-0.382;2022-08-25T13:12:26;1.80;;;1.17;;
30036;SDS011;36325;51.512;-0.382;2022-08-25T13:14:56;1.00;;;0.73;;
30036;SDS011;36325;51.512;-0.382;2022-08-25T13:17:33;0.93;;;0.82;;
30036;SDS011;36325;51.512;-0.382;2022-08-25T13:20:16;1.92;;;1.08;;
30036;SDS011;36325;51.512;-0.382;2022-08-25T13:22:48;3.63;;;1.20;;
30036;SDS011;36325;51.512;-0.382;2022-08-25T13:25:23;2.13;;;1.15;;
30036;SDS011;36325;51.512;-0.382;2022-08-25T13:27:56;4.50;;;1.35;;
30036;SDS011;36325;51.512;-0.382;2022-08-25T13:30:27;1.65;;;1.15;;
30036;SDS011;36325;51.512;-0.382;2022-08-25T13:32:56;2.83;;;1.48;;
30036;SDS011;36325;51.512;-0.382;2022-08-25T13:35:26;3.40;;;1.27;;
30036;SDS011;36325;51.512;-0.382;2022-08-25T13:38:11;2.35;;;1.73;;
30036;SDS011;36325;51.512;-0.382;2022-08-25T13:40:43;2.78;;;2.00;;
30036;SDS011;36325;51.512;-0.382;2022-08-25T13:43:11;1.80;;;1.65;;
30036;SDS011;36325;51.512;-0.382;2022-08-25T13:45:44;2.45;;;1.60;;
30036;SDS011;36325;51.512;-0.382;2022-08-25T13:48:30;2.25;;;1.52;;
30036;SDS011;36325;51.512;-0.382;2022-08-25T13:51:15;1.92;;;1.50;;
30036;SDS011;36325;51.512;-0.382;2022-08-25T13:54:23;2.10;;;1.40;;
30036;SDS011;36325;51.512;-0.382;2022-08-25T13:59:59;3.92;;;2.05;;
30036;SDS011;36325;51.512;-0.382;2022-08-25T14:12:01;4.18;;;2.10;;
30036;SDS011;36325;51.512;-0.382;2022-08-25T14:16:56;3.42;;;1.75;;
30036;SDS011;36325;51.512;-0.382;2022-08-25T14:19:43;6.35;;;2.33;;
30036;SDS011;36325;51.512;-0.382;2022-08-25T14:22:17;4.20;;;2.15;;
30036;SDS011;36325;51.512;-0.382;2022-08-25T14:24:45;3.42;;;2.63;;
30036;SDS011;36325;51.512;-0.382;2022-08-25T14:27:15;3.80;;;2.53;;
30036;SDS011;36325;51.512;-0.382;2022-08-25T14:29:42;4.68;;;2.17;;
30036;SDS011;36325;51.512;-0.382;2022-08-25T14:32:09;6.82;;;3.05;;
30036;SDS011;36325;51.512;-0.382;2022-08-25T14:34:39;2.85;;;2.63;;
30036;SDS011;36325;51.512;-0.382;2022-08-25T14:37:15;4.25;;;3.50;;
30036;SDS011;36325;51.512;-0.382;2022-08-25T14:39:51;6.07;;;3.70;;
30036;SDS011;36325;51.512;-0.382;2022-08-25T14:42:20;4.68;;;3.83;;
30036;SDS011;36325;51.512;-0.382;2022-08-25T14:44:50;5.40;;;3.75;;
30036;SDS011;36325;51.512;-0.382;2022-08-25T14:47:20;4.55;;;3.88;;
30036;SDS011;36325;51.512;-0.382;2022-08-25T14:49:47;4.72;;;4.15;;
30036;SDS011;36325;51.512;-0.382;2022-08-25T14:52:17;5.72;;;5.10;;
30036;SDS011;36325;51.512;-0.382;2022-08-25T14:54:52;5.03;;;4.38;;
30036;SDS011;36325;51.512;-0.382;2022-08-25T14:57:19;6.03;;;4.25;;
30036;SDS011;36325;51.512;-0.382;2022-08-25T14:59:47;5.75;;;4.30;;
30036;SDS011;36325;51.512;-0.382;2022-08-25T15:02:15;9.10;;;5.78;;
30036;SDS011;36325;51.512;-0.382;2022-08-25T15:04:57;8.15;;;6.63;;
30036;SDS011;36325;51.512;-0.382;2022-08-25T15:07:28;14.68;;;8.15;;
30036;SDS011;36325;51.512;-0.382;2022-08-25T15:10:15;13.85;;;8.57;;
30036;SDS011;36325;51.512;-0.382;2022-08-25T15:12:44;10.25;;;8.32;;
30036;SDS011;36325;51.512;-0.382;2022-08-25T15:15:16;12.38;;;7.50;;
30036;SDS011;36325;51.512;-0.382;2022-08-25T15:17:44;13.65;;;7.95;;
30036;SDS011;36325;51.512;-0.382;2022-08-25T15:20:12;14.13;;;8.10;;
30036;SDS011;36325;51.512;-0.382;2022-08-25T15:22:40;9.55;;;6.70;;
30036;SDS011;36325;51.512;-0.382;2022-08-25T15:25:09;11.77;;;6.88;;
30036;SDS011;36325;51.512;-0.382;2022-08-25T15:27:38;10.90;;;7.35;;
30036;SDS011;36325;51.512;-0.382;2022-08-25T15:30:06;9.55;;;6.88;;
30036;SDS011;36325;51.512;-0.382;2022-08-25T15:32:34;9.98;;;6.95;;
30036;SDS011;36325;51.512;-0.382;2022-08-25T15:35:01;12.68;;;7.10;;
30036;SDS011;36325;51.512;-0.382;2022-08-25T15:37:28;8.60;;;7.10;;
30036;SDS011;36325;51.512;-0.382;2022-08-25T15:39:56;11.75;;;6.22;;
30036;SDS011;36325;51.512;-0.382;2022-08-25T15:42:25;12.02;;;7.32;;
30036;SDS011;36325;51.512;-0.382;2022-08-25T15:44:52;10.57;;;7.38;;
30036;SDS011;36325;51.512;-0.382;2022-08-25T15:47:20;10.27;;;6.80;;
30036;SDS011;36325;51.512;-0.382;2022-08-25T15:49:48;9.90;;;7.53;;
30036;SDS011;36325;51.512;-0.382;2022-08-25T15:52:16;12.27;;;6.82;;
30036;SDS011;36325;51.512;-0.382;2022-08-25T15:54:43;13.30;;;7.25;;
30036;SDS011;36325;51.512;-0.382;2022-08-25T15:57:11;12.70;;;7.65;;
30036;SDS011;36325;51.512;-0.382;2022-08-25T15:59:42;8.73;;;7.18;;
30036;SDS011;36325;51.512;-0.382;2022-08-25T16:02:09;12.10;;;8.02;;
30036;SDS011;36325;51.512;-0.382;2022-08-25T16:04:40;10.35;;;7.55;;
30036;SDS011;36325;51.512;-0.382;2022-08-25T16:07:07;13.45;;;7.82;;
30036;SDS011;36325;51.512;-0.382;2022-08-25T16:09:35;15.57;;;8.63;;
30036;SDS011;36325;51.512;-0.382;2022-08-25T16:12:02;9.77;;;7.15;;
30036;SDS011;36325;51.512;-0.382;2022-08-25T16:14:32;11.48;;;6.97;;
30036;SDS011;36325;51.512;-0.382;2022-08-25T16:16:59;12.55;;;6.70;;
30036;SDS011;36325;51.512;-0.382;2022-08-25T16:19:27;9.70;;;6.97;;
30036;SDS011;36325;51.512;-0.382;2022-08-25T16:21:55;14.63;;;7.82;;
30036;SDS011;36325;51.512;-0.382;2022-08-25T16:24:23;18.05;;;7.50;;
30036;SDS011;36325;51.512;-0.382;2022-08-25T16:26:50;12.45;;;7.30;;
30036;SDS011;36325;51.512;-0.382;2022-08-25T16:29:17;11.50;;;7.72;;
30036;SDS011;36325;51.512;-0.382;2022-08-25T16:31:45;13.00;;;8.15;;
30036;SDS011;36325;51.512;-0.382;2022-08-25T16:34:13;12.48;;;8.15;;
30036;SDS011;36325;51.512;-0.382;2022-08-25T16:36:40;14.43;;;7.95;;
30036;SDS011;36325;51.512;-0.382;2022-08-25T16:39:07;10.20;;;6.65;;
30036;SDS011;36325;51.512;-0.382;2022-08-25T16:41:38;12.43;;;6.93;;
30036;SDS011;36325;51.512;-0.382;2022-08-25T16:44:05;11.88;;;6.28;;
30036;SDS011;36325;51.512;-0.382;2022-08-25T16:46:36;8.40;;;5.78;;
30036;SDS011;36325;51.512;-0.382;2022-08-25T16:49:04;11.15;;;5.57;;
30036;SDS011;36325;51.512;-0.382;2022-08-25T16:51:31;9.20;;;5.53;;
30036;SDS011;36325;51.512;-0.382;2022-08-25T16:53:59;10.13;;;5.72;;
30036;SDS011;36325;51.512;-0.382;2022-08-25T16:56:47;8.93;;;5.47;;
30036;SDS011;36325;51.512;-0.382;2022-08-25T16:59:19;11.70;;;5.60;;
30036;SDS011;36325;51.512;-0.382;2022-08-25T17:01:46;9.40;;;4.43;;
30036;SDS011;36325;51.512;-0.382;2022-08-25T17:04:15;9.93;;;5.43;;
30036;SDS011;36325;51.512;-0.382;2022-08-25T17:06:43;7.68;;;5.00;;
30036;SDS011;36325;51.512;-0.382;2022-08-25T17:14:15;8.88;;;5.38;;
30036;SDS011;36325;51.512;-0.382;2022-08-25T17:16:44;11.10;;;4.80;;
30036;SDS011;36325;51.512;-0.382;2022-08-25T17:19:12;8.70;;;4.30;;